Baltimore, Maryland
Traffic Map
Current Weather Conditions
Baltimore, Maryland
Overcast
Overcast

Feels Like: 7°
Wind Chill: Ceiling: 2000
Heat Index: Visibility: 10mi
Dew Point: Wind: 8mph
Humidity: 77% Direction: 360° (N)
Pressure: 29.77in Gusts: 0mph
Raw Report DataKBWI 011054Z 36007KT 290V030 10SM OVC020 09/06 A2977 RMK AO2 SLP083 T00940056 $
Traffic Incident Summary
Active as of:
Severity:
Category:
InformationThere was an issue retrieving the traffic information for this location. Please try a different location or try again shortly.
Advertisements
Track Severe Weather on mobile